sensor_id;sensor_type;location;lat;lon;timestamp;P1;durP1;ratioP1;P2;durP2;ratioP2
28028;SDS011;15345;59.364;18.016;2022-11-14T00:01:18;23.95;;;8.07;;
28028;SDS011;15345;59.364;18.016;2022-11-14T00:02:37;18.13;;;8.25;;
28028;SDS011;15345;59.364;18.016;2022-11-14T00:03:57;23.25;;;8.43;;
28028;SDS011;15345;59.364;18.016;2022-11-14T00:05:16;27.73;;;8.35;;
28028;SDS011;15345;59.364;18.016;2022-11-14T00:06:35;35.75;;;9.05;;
28028;SDS011;15345;59.364;18.016;2022-11-14T00:07:54;22.48;;;8.38;;
28028;SDS011;15345;59.364;18.016;2022-11-14T00:09:13;29.25;;;9.13;;
28028;SDS011;15345;59.364;18.016;2022-11-14T00:10:32;18.63;;;9.15;;
28028;SDS011;15345;59.364;18.016;2022-11-14T00:11:50;18.17;;;9.25;;
28028;SDS011;15345;59.364;18.016;2022-11-14T00:13:09;17.77;;;9.70;;
28028;SDS011;15345;59.364;18.016;2022-11-14T00:14:28;21.55;;;10.15;;
28028;SDS011;15345;59.364;18.016;2022-11-14T00:15:48;31.50;;;12.90;;
28028;SDS011;15345;59.364;18.016;2022-11-14T00:17:08;21.60;;;12.23;;
28028;SDS011;15345;59.364;18.016;2022-11-14T00:18:27;19.17;;;9.55;;
28028;SDS011;15345;59.364;18.016;2022-11-14T00:19:46;19.30;;;8.55;;
28028;SDS011;15345;59.364;18.016;2022-11-14T00:21:05;19.95;;;8.80;;
28028;SDS011;15345;59.364;18.016;2022-11-14T00:22:24;22.92;;;9.68;;
28028;SDS011;15345;59.364;18.016;2022-11-14T00:23:43;18.10;;;8.35;;
28028;SDS011;15345;59.364;18.016;2022-11-14T00:25:02;15.75;;;8.32;;
28028;SDS011;15345;59.364;18.016;2022-11-14T00:26:21;18.42;;;8.57;;
28028;SDS011;15345;59.364;18.016;2022-11-14T00:27:40;17.95;;;8.55;;
28028;SDS011;15345;59.364;18.016;2022-11-14T00:28:59;19.65;;;8.02;;
28028;SDS011;15345;59.364;18.016;2022-11-14T00:30:18;13.25;;;7.50;;
28028;SDS011;15345;59.364;18.016;2022-11-14T00:31:37;17.70;;;8.02;;
28028;SDS011;15345;59.364;18.016;2022-11-14T00:32:56;16.08;;;7.30;;
28028;SDS011;15345;59.364;18.016;2022-11-14T00:34:15;10.82;;;6.70;;
28028;SDS011;15345;59.364;18.016;2022-11-14T00:35:34;14.65;;;7.25;;
28028;SDS011;15345;59.364;18.016;2022-11-14T00:36:53;16.90;;;7.50;;
28028;SDS011;15345;59.364;18.016;2022-11-14T00:38:12;14.20;;;7.90;;
28028;SDS011;15345;59.364;18.016;2022-11-14T00:39:32;15.75;;;8.60;;
28028;SDS011;15345;59.364;18.016;2022-11-14T00:40:50;15.90;;;7.40;;
28028;SDS011;15345;59.364;18.016;2022-11-14T00:42:09;14.70;;;7.72;;
28028;SDS011;15345;59.364;18.016;2022-11-14T00:43:29;14.15;;;7.07;;
28028;SDS011;15345;59.364;18.016;2022-11-14T00:44:48;16.48;;;8.27;;
28028;SDS011;15345;59.364;18.016;2022-11-14T00:46:07;15.95;;;8.57;;
28028;SDS011;15345;59.364;18.016;2022-11-14T00:47:26;15.70;;;8.35;;
28028;SDS011;15345;59.364;18.016;2022-11-14T00:48:45;19.35;;;8.95;;
28028;SDS011;15345;59.364;18.016;2022-11-14T00:50:04;18.40;;;9.15;;
28028;SDS011;15345;59.364;18.016;2022-11-14T00:51:23;17.73;;;8.88;;
28028;SDS011;15345;59.364;18.016;2022-11-14T00:52:42;16.13;;;9.18;;
28028;SDS011;15345;59.364;18.016;2022-11-14T00:54:01;13.93;;;8.27;;
28028;SDS011;15345;59.364;18.016;2022-11-14T00:55:20;15.80;;;8.68;;
28028;SDS011;15345;59.364;18.016;2022-11-14T00:56:39;14.88;;;8.40;;
28028;SDS011;15345;59.364;18.016;2022-11-14T00:57:58;18.23;;;9.25;;
28028;SDS011;15345;59.364;18.016;2022-11-14T00:59:17;18.08;;;9.77;;
28028;SDS011;15345;59.364;18.016;2022-11-14T01:33:41;16.42;;;7.75;;
28028;SDS011;15345;59.364;18.016;2022-11-14T01:35:00;15.07;;;7.35;;
28028;SDS011;15345;59.364;18.016;2022-11-14T01:36:20;17.10;;;8.50;;
28028;SDS011;15345;59.364;18.016;2022-11-14T01:37:39;12.68;;;7.82;;
28028;SDS011;15345;59.364;18.016;2022-11-14T01:38:58;15.48;;;8.93;;
28028;SDS011;15345;59.364;18.016;2022-11-14T01:40:17;15.38;;;8.52;;
28028;SDS011;15345;59.364;18.016;2022-11-14T01:41:36;17.55;;;8.43;;
28028;SDS011;15345;59.364;18.016;2022-11-14T01:44:51;12.70;;;7.13;;
28028;SDS011;15345;59.364;18.016;2022-11-14T01:46:21;18.55;;;7.38;;
28028;SDS011;15345;59.364;18.016;2022-11-14T01:47:41;17.17;;;7.75;;
28028;SDS011;15345;59.364;18.016;2022-11-14T01:49:01;14.18;;;8.43;;
28028;SDS011;15345;59.364;18.016;2022-11-14T01:50:21;16.10;;;7.85;;
28028;SDS011;15345;59.364;18.016;2022-11-14T01:51:41;16.65;;;7.93;;
28028;SDS011;15345;59.364;18.016;2022-11-14T01:53:00;15.40;;;8.70;;
28028;SDS011;15345;59.364;18.016;2022-11-14T01:54:26;17.73;;;8.38;;
28028;SDS011;15345;59.364;18.016;2022-11-14T01:55:45;18.38;;;8.52;;
28028;SDS011;15345;59.364;18.016;2022-11-14T01:57:05;15.68;;;8.48;;
28028;SDS011;15345;59.364;18.016;2022-11-14T01:58:26;19.55;;;7.70;;
28028;SDS011;15345;59.364;18.016;2022-11-14T01:59:46;19.88;;;9.07;;
28028;SDS011;15345;59.364;18.016;2022-11-14T02:01:07;14.90;;;8.32;;
28028;SDS011;15345;59.364;18.016;2022-11-14T02:02:26;15.98;;;10.07;;
28028;SDS011;15345;59.364;18.016;2022-11-14T02:03:46;18.67;;;9.25;;
28028;SDS011;15345;59.364;18.016;2022-11-14T02:05:10;14.70;;;9.18;;
28028;SDS011;15345;59.364;18.016;2022-11-14T02:06:32;18.38;;;9.85;;
28028;SDS011;15345;59.364;18.016;2022-11-14T02:07:51;17.55;;;8.75;;
28028;SDS011;15345;59.364;18.016;2022-11-14T02:09:10;17.23;;;9.18;;
28028;SDS011;15345;59.364;18.016;2022-11-14T02:10:29;19.02;;;10.25;;
28028;SDS011;15345;59.364;18.016;2022-11-14T02:11:48;16.33;;;10.68;;
28028;SDS011;15345;59.364;18.016;2022-11-14T02:13:07;22.65;;;10.93;;
28028;SDS011;15345;59.364;18.016;2022-11-14T02:14:27;20.02;;;11.13;;
28028;SDS011;15345;59.364;18.016;2022-11-14T02:15:46;20.20;;;10.48;;
28028;SDS011;15345;59.364;18.016;2022-11-14T02:17:05;20.25;;;11.23;;
28028;SDS011;15345;59.364;18.016;2022-11-14T02:18:24;24.88;;;11.95;;
28028;SDS011;15345;59.364;18.016;2022-11-14T02:19:44;23.52;;;12.20;;
28028;SDS011;15345;59.364;18.016;2022-11-14T02:21:03;25.35;;;13.15;;
28028;SDS011;15345;59.364;18.016;2022-11-14T02:22:22;19.75;;;11.90;;
28028;SDS011;15345;59.364;18.016;2022-11-14T02:23:41;32.35;;;13.77;;
28028;SDS011;15345;59.364;18.016;2022-11-14T02:25:00;24.95;;;12.98;;
28028;SDS011;15345;59.364;18.016;2022-11-14T02:26:20;22.05;;;12.05;;
28028;SDS011;15345;59.364;18.016;2022-11-14T02:27:39;25.77;;;12.18;;
28028;SDS011;15345;59.364;18.016;2022-11-14T02:28:59;23.55;;;12.85;;
28028;SDS011;15345;59.364;18.016;2022-11-14T02:30:19;23.30;;;11.85;;
28028;SDS011;15345;59.364;18.016;2022-11-14T02:31:38;30.45;;;11.90;;
28028;SDS011;15345;59.364;18.016;2022-11-14T02:32:57;20.20;;;11.35;;
28028;SDS011;15345;59.364;18.016;2022-11-14T02:34:16;26.17;;;11.90;;
28028;SDS011;15345;59.364;18.016;2022-11-14T02:35:37;22.33;;;11.95;;
28028;SDS011;15345;59.364;18.016;2022-11-14T02:36:57;22.80;;;12.43;;
28028;SDS011;15345;59.364;18.016;2022-11-14T02:38:16;25.70;;;12.63;;
28028;SDS011;15345;59.364;18.016;2022-11-14T02:39:35;21.48;;;11.48;;
28028;SDS011;15345;59.364;18.016;2022-11-14T02:40:54;24.00;;;12.13;;
28028;SDS011;15345;59.364;18.016;2022-11-14T02:42:13;23.25;;;12.15;;
28028;SDS011;15345;59.364;18.016;2022-11-14T02:43:32;29.67;;;12.65;;
28028;SDS011;15345;59.364;18.016;2022-11-14T02:44:51;23.98;;;13.43;;
28028;SDS011;15345;59.364;18.016;2022-11-14T02:46:10;23.02;;;12.50;;
28028;SDS011;15345;59.364;18.016;2022-11-14T02:47:29;27.67;;;13.65;;
28028;SDS011;15345;59.364;18.016;2022-11-14T02:48:48;29.50;;;13.27;;
28028;SDS011;15345;59.364;18.016;2022-11-14T02:50:07;22.08;;;11.60;;
28028;SDS011;15345;59.364;18.016;2022-11-14T02:51:26;24.85;;;11.02;;
28028;SDS011;15345;59.364;18.016;2022-11-14T02:52:45;21.33;;;13.40;;
28028;SDS011;15345;59.364;18.016;2022-11-14T02:54:04;20.90;;;11.75;;
28028;SDS011;15345;59.364;18.016;2022-11-14T02:55:22;24.27;;;11.95;;
28028;SDS011;15345;59.364;18.016;2022-11-14T02:56:41;26.67;;;12.82;;
28028;SDS011;15345;59.364;18.016;2022-11-14T02:58:00;23.75;;;14.23;;
28028;SDS011;15345;59.364;18.016;2022-11-14T02:59:19;27.17;;;13.73;;
28028;SDS011;15345;59.364;18.016;2022-11-14T03:00:38;22.00;;;13.52;;
28028;SDS011;15345;59.364;18.016;2022-11-14T03:01:58;23.02;;;12.88;;
28028;SDS011;15345;59.364;18.016;2022-11-14T03:03:17;31.40;;;14.63;;
28028;SDS011;15345;59.364;18.016;2022-11-14T03:04:36;23.05;;;14.75;;
28028;SDS011;15345;59.364;18.016;2022-11-14T03:06:01;29.33;;;15.10;;
28028;SDS011;15345;59.364;18.016;2022-11-14T03:07:20;27.25;;;14.82;;
28028;SDS011;15345;59.364;18.016;2022-11-14T03:08:39;24.25;;;12.70;;
28028;SDS011;15345;59.364;18.016;2022-11-14T03:09:58;21.35;;;12.98;;
28028;SDS011;15345;59.364;18.016;2022-11-14T03:11:17;27.88;;;13.90;;
28028;SDS011;15345;59.364;18.016;2022-11-14T03:12:36;23.92;;;12.65;;
28028;SDS011;15345;59.364;18.016;2022-11-14T03:13:55;23.30;;;13.10;;
28028;SDS011;15345;59.364;18.016;2022-11-14T03:15:14;31.13;;;15.55;;
28028;SDS011;15345;59.364;18.016;2022-11-14T03:16:33;26.83;;;14.00;;
28028;SDS011;15345;59.364;18.016;2022-11-14T03:17:52;28.77;;;15.32;;
28028;SDS011;15345;59.364;18.016;2022-11-14T03:19:12;27.17;;;13.50;;
28028;SDS011;15345;59.364;18.016;2022-11-14T03:20:31;25.35;;;15.23;;
28028;SDS011;15345;59.364;18.016;2022-11-14T03:21:50;31.58;;;14.30;;
28028;SDS011;15345;59.364;18.016;2022-11-14T03:23:09;26.63;;;14.07;;
28028;SDS011;15345;59.364;18.016;2022-11-14T03:24:28;30.13;;;14.50;;
28028;SDS011;15345;59.364;18.016;2022-11-14T03:25:47;31.05;;;16.48;;
28028;SDS011;15345;59.364;18.016;2022-11-14T03:27:06;27.63;;;15.73;;
28028;SDS011;15345;59.364;18.016;2022-11-14T03:28:25;29.95;;;15.15;;
28028;SDS011;15345;59.364;18.016;2022-11-14T03:29:44;23.33;;;13.20;;
28028;SDS011;15345;59.364;18.016;2022-11-14T03:31:03;21.60;;;14.77;;
28028;SDS011;15345;59.364;18.016;2022-11-14T03:32:21;26.05;;;14.45;;
28028;SDS011;15345;59.364;18.016;2022-11-14T03:33:40;30.42;;;16.00;;
28028;SDS011;15345;59.364;18.016;2022-11-14T03:34:59;22.85;;;12.73;;
28028;SDS011;15345;59.364;18.016;2022-11-14T03:36:18;34.72;;;17.05;;
28028;SDS011;15345;59.364;18.016;2022-11-14T03:37:37;27.20;;;15.13;;
28028;SDS011;15345;59.364;18.016;2022-11-14T03:38:55;26.38;;;15.25;;
28028;SDS011;15345;59.364;18.016;2022-11-14T03:40:15;26.08;;;13.68;;
28028;SDS011;15345;59.364;18.016;2022-11-14T03:41:33;22.20;;;13.45;;
28028;SDS011;15345;59.364;18.016;2022-11-14T03:42:52;23.27;;;14.07;;
28028;SDS011;15345;59.364;18.016;2022-11-14T03:44:11;22.20;;;14.27;;
28028;SDS011;15345;59.364;18.016;2022-11-14T03:45:30;29.45;;;14.98;;
28028;SDS011;15345;59.364;18.016;2022-11-14T03:46:50;24.15;;;12.55;;
28028;SDS011;15345;59.364;18.016;2022-11-14T03:48:09;19.90;;;12.45;;
28028;SDS011;15345;59.364;18.016;2022-11-14T03:49:28;23.58;;;11.65;;
28028;SDS011;15345;59.364;18.016;2022-11-14T03:50:48;21.05;;;11.50;;
28028;SDS011;15345;59.364;18.016;2022-11-14T03:52:07;19.98;;;13.05;;
28028;SDS011;15345;59.364;18.016;2022-11-14T03:53:26;18.60;;;11.65;;
28028;SDS011;15345;59.364;18.016;2022-11-14T03:54:45;18.40;;;11.77;;
28028;SDS011;15345;59.364;18.016;2022-11-14T03:56:04;17.60;;;11.00;;
28028;SDS011;15345;59.364;18.016;2022-11-14T03:57:23;15.45;;;10.80;;
28028;SDS011;15345;59.364;18.016;2022-11-14T03:58:42;20.38;;;11.43;;
28028;SDS011;15345;59.364;18.016;2022-11-14T04:00:01;26.00;;;11.63;;
28028;SDS011;15345;59.364;18.016;2022-11-14T04:01:20;20.02;;;11.32;;
28028;SDS011;15345;59.364;18.016;2022-11-14T04:02:39;19.58;;;11.18;;
28028;SDS011;15345;59.364;18.016;2022-11-14T04:03:58;17.48;;;10.50;;
28028;SDS011;15345;59.364;18.016;2022-11-14T04:05:17;20.08;;;10.73;;
28028;SDS011;15345;59.364;18.016;2022-11-14T04:06:36;22.83;;;11.63;;
28028;SDS011;15345;59.364;18.016;2022-11-14T04:07:55;23.58;;;11.73;;
28028;SDS011;15345;59.364;18.016;2022-11-14T04:09:14;17.95;;;11.77;;
28028;SDS011;15345;59.364;18.016;2022-11-14T04:10:33;15.77;;;11.27;;
28028;SDS011;15345;59.364;18.016;2022-11-14T04:11:51;18.80;;;11.43;;
28028;SDS011;15345;59.364;18.016;2022-11-14T04:13:10;19.20;;;10.73;;
28028;SDS011;15345;59.364;18.016;2022-11-14T04:14:29;14.60;;;10.93;;
28028;SDS011;15345;59.364;18.016;2022-11-14T04:15:58;20.35;;;10.52;;
28028;SDS011;15345;59.364;18.016;2022-11-14T04:17:17;17.08;;;10.38;;
28028;SDS011;15345;59.364;18.016;2022-11-14T04:18:36;21.85;;;10.18;;
28028;SDS011;15345;59.364;18.016;2022-11-14T04:19:55;18.45;;;10.70;;
28028;SDS011;15345;59.364;18.016;2022-11-14T04:21:14;19.77;;;10.52;;
28028;SDS011;15345;59.364;18.016;2022-11-14T04:22:33;21.00;;;11.10;;
28028;SDS011;15345;59.364;18.016;2022-11-14T04:23:52;21.92;;;11.13;;
28028;SDS011;15345;59.364;18.016;2022-11-14T04:25:10;15.18;;;10.90;;
28028;SDS011;15345;59.364;18.016;2022-11-14T04:26:29;15.18;;;10.75;;
28028;SDS011;15345;59.364;18.016;2022-11-14T04:27:48;23.27;;;11.60;;
28028;SDS011;15345;59.364;18.016;2022-11-14T04:29:07;21.70;;;10.52;;
28028;SDS011;15345;59.364;18.016;2022-11-14T04:30:26;20.15;;;11.27;;
28028;SDS011;15345;59.364;18.016;2022-11-14T04:31:45;24.60;;;10.77;;
28028;SDS011;15345;59.364;18.016;2022-11-14T04:33:03;21.05;;;11.02;;
28028;SDS011;15345;59.364;18.016;2022-11-14T04:34:22;18.77;;;10.32;;
28028;SDS011;15345;59.364;18.016;2022-11-14T04:35:41;20.15;;;10.55;;
28028;SDS011;15345;59.364;18.016;2022-11-14T04:37:00;20.55;;;9.98;;
28028;SDS011;15345;59.364;18.016;2022-11-14T04:38:19;18.00;;;10.18;;
28028;SDS011;15345;59.364;18.016;2022-11-14T04:39:38;18.95;;;9.40;;
28028;SDS011;15345;59.364;18.016;2022-11-14T04:40:57;16.63;;;10.27;;
28028;SDS011;15345;59.364;18.016;2022-11-14T04:42:16;24.75;;;10.40;;
28028;SDS011;15345;59.364;18.016;2022-11-14T04:43:35;17.80;;;10.10;;
28028;SDS011;15345;59.364;18.016;2022-11-14T04:44:54;20.90;;;10.55;;
28028;SDS011;15345;59.364;18.016;2022-11-14T04:46:13;21.92;;;10.32;;
28028;SDS011;15345;59.364;18.016;2022-11-14T04:47:32;20.33;;;10.82;;
28028;SDS011;15345;59.364;18.016;2022-11-14T04:48:51;19.38;;;10.43;;
28028;SDS011;15345;59.364;18.016;2022-11-14T04:50:10;24.63;;;10.65;;
28028;SDS011;15345;59.364;18.016;2022-11-14T04:51:29;23.85;;;10.38;;
28028;SDS011;15345;59.364;18.016;2022-11-14T04:52:50;17.88;;;10.80;;
28028;SDS011;15345;59.364;18.016;2022-11-14T04:54:09;21.17;;;10.70;;
28028;SDS011;15345;59.364;18.016;2022-11-14T04:55:28;23.75;;;11.07;;
28028;SDS011;15345;59.364;18.016;2022-11-14T04:56:46;20.65;;;10.98;;
28028;SDS011;15345;59.364;18.016;2022-11-14T04:58:05;22.27;;;10.52;;
28028;SDS011;15345;59.364;18.016;2022-11-14T04:59:25;21.35;;;11.32;;
28028;SDS011;15345;59.364;18.016;2022-11-14T05:00:43;25.63;;;10.95;;
28028;SDS011;15345;59.364;18.016;2022-11-14T05:02:03;21.98;;;11.18;;
28028;SDS011;15345;59.364;18.016;2022-11-14T05:03:23;21.92;;;11.70;;
28028;SDS011;15345;59.364;18.016;2022-11-14T05:04:42;25.65;;;12.23;;
28028;SDS011;15345;59.364;18.016;2022-11-14T05:06:03;25.92;;;11.60;;
28028;SDS011;15345;59.364;18.016;2022-11-14T05:07:22;18.00;;;10.77;;
28028;SDS011;15345;59.364;18.016;2022-11-14T05:08:41;24.38;;;12.05;;
28028;SDS011;15345;59.364;18.016;2022-11-14T05:10:00;19.58;;;10.82;;
28028;SDS011;15345;59.364;18.016;2022-11-14T05:11:19;22.83;;;10.38;;
28028;SDS011;15345;59.364;18.016;2022-11-14T05:12:38;23.25;;;11.50;;
28028;SDS011;15345;59.364;18.016;2022-11-14T05:13:56;17.70;;;9.82;;
28028;SDS011;15345;59.364;18.016;2022-11-14T05:15:16;25.05;;;10.88;;
28028;SDS011;15345;59.364;18.016;2022-11-14T05:16:37;19.98;;;10.05;;
28028;SDS011;15345;59.364;18.016;2022-11-14T05:17:56;21.70;;;9.43;;
28028;SDS011;15345;59.364;18.016;2022-11-14T05:19:15;27.25;;;11.95;;
28028;SDS011;15345;59.364;18.016;2022-11-14T05:20:34;18.55;;;8.30;;
28028;SDS011;15345;59.364;18.016;2022-11-14T05:21:53;19.10;;;9.18;;
28028;SDS011;15345;59.364;18.016;2022-11-14T05:23:15;14.82;;;7.88;;
28028;SDS011;15345;59.364;18.016;2022-11-14T05:24:36;10.60;;;6.90;;
28028;SDS011;15345;59.364;18.016;2022-11-14T05:25:58;14.30;;;7.40;;
28028;SDS011;15345;59.364;18.016;2022-11-14T05:27:18;16.58;;;8.32;;
28028;SDS011;15345;59.364;18.016;2022-11-14T05:28:37;12.35;;;7.35;;
28028;SDS011;15345;59.364;18.016;2022-11-14T05:29:56;19.88;;;8.60;;
28028;SDS011;15345;59.364;18.016;2022-11-14T05:31:15;16.83;;;8.50;;
28028;SDS011;15345;59.364;18.016;2022-11-14T05:32:35;17.70;;;7.63;;
28028;SDS011;15345;59.364;18.016;2022-11-14T05:33:54;19.45;;;7.97;;
28028;SDS011;15345;59.364;18.016;2022-11-14T05:35:13;14.82;;;7.97;;
28028;SDS011;15345;59.364;18.016;2022-11-14T05:36:32;18.77;;;7.75;;
28028;SDS011;15345;59.364;18.016;2022-11-14T05:37:51;14.02;;;7.50;;
28028;SDS011;15345;59.364;18.016;2022-11-14T05:39:10;16.23;;;7.68;;
28028;SDS011;15345;59.364;18.016;2022-11-14T05:40:29;14.85;;;7.43;;
28028;SDS011;15345;59.364;18.016;2022-11-14T05:41:48;14.90;;;7.70;;
28028;SDS011;15345;59.364;18.016;2022-11-14T05:43:07;16.85;;;7.53;;
28028;SDS011;15345;59.364;18.016;2022-11-14T05:44:26;17.08;;;7.50;;
28028;SDS011;15345;59.364;18.016;2022-11-14T05:45:45;18.25;;;7.43;;
28028;SDS011;15345;59.364;18.016;2022-11-14T05:47:04;15.80;;;7.72;;
28028;SDS011;15345;59.364;18.016;2022-11-14T05:48:23;14.88;;;8.13;;
28028;SDS011;15345;59.364;18.016;2022-11-14T05:49:42;17.05;;;8.10;;
28028;SDS011;15345;59.364;18.016;2022-11-14T05:51:02;13.15;;;7.82;;
28028;SDS011;15345;59.364;18.016;2022-11-14T05:52:21;11.80;;;7.78;;
28028;SDS011;15345;59.364;18.016;2022-11-14T05:53:40;14.25;;;7.55;;
28028;SDS011;15345;59.364;18.016;2022-11-14T05:54:59;14.82;;;7.70;;
28028;SDS011;15345;59.364;18.016;2022-11-14T05:56:18;15.95;;;8.80;;
28028;SDS011;15345;59.364;18.016;2022-11-14T05:57:37;11.27;;;7.57;;
28028;SDS011;15345;59.364;18.016;2022-11-14T05:58:56;15.27;;;7.95;;
28028;SDS011;15345;59.364;18.016;2022-11-14T06:00:15;16.17;;;7.00;;
28028;SDS011;15345;59.364;18.016;2022-11-14T06:01:34;10.05;;;6.97;;
28028;SDS011;15345;59.364;18.016;2022-11-14T06:02:54;13.20;;;6.88;;
28028;SDS011;15345;59.364;18.016;2022-11-14T06:04:13;12.73;;;8.05;;
28028;SDS011;15345;59.364;18.016;2022-11-14T06:05:35;14.00;;;7.10;;
28028;SDS011;15345;59.364;18.016;2022-11-14T06:06:54;13.30;;;7.03;;
28028;SDS011;15345;59.364;18.016;2022-11-14T06:08:13;14.50;;;7.68;;
28028;SDS011;15345;59.364;18.016;2022-11-14T06:09:32;15.25;;;7.57;;
28028;SDS011;15345;59.364;18.016;2022-11-14T06:10:51;12.82;;;8.13;;
28028;SDS011;15345;59.364;18.016;2022-11-14T06:12:10;11.32;;;6.93;;
28028;SDS011;15345;59.364;18.016;2022-11-14T06:13:29;9.02;;;6.90;;
28028;SDS011;15345;59.364;18.016;2022-11-14T06:14:48;11.60;;;6.85;;
28028;SDS011;15345;59.364;18.016;2022-11-14T06:16:11;13.05;;;7.45;;
28028;SDS011;15345;59.364;18.016;2022-11-14T06:17:30;12.98;;;6.97;;
28028;SDS011;15345;59.364;18.016;2022-11-14T06:18:53;14.20;;;7.25;;
28028;SDS011;15345;59.364;18.016;2022-11-14T06:20:12;14.57;;;7.18;;
28028;SDS011;15345;59.364;18.016;2022-11-14T06:21:31;11.20;;;7.28;;
28028;SDS011;15345;59.364;18.016;2022-11-14T06:22:52;13.60;;;7.03;;
28028;SDS011;15345;59.364;18.016;2022-11-14T06:24:11;14.82;;;8.13;;
28028;SDS011;15345;59.364;18.016;2022-11-14T06:25:30;15.85;;;8.18;;
28028;SDS011;15345;59.364;18.016;2022-11-14T06:26:49;18.75;;;8.30;;
28028;SDS011;15345;59.364;18.016;2022-11-14T06:28:08;14.32;;;8.07;;
28028;SDS011;15345;59.364;18.016;2022-11-14T06:29:27;16.17;;;8.18;;
28028;SDS011;15345;59.364;18.016;2022-11-14T06:30:46;12.35;;;7.90;;
28028;SDS011;15345;59.364;18.016;2022-11-14T06:32:05;16.95;;;7.97;;
28028;SDS011;15345;59.364;18.016;2022-11-14T06:33:25;15.73;;;8.00;;
28028;SDS011;15345;59.364;18.016;2022-11-14T06:34:44;15.93;;;8.27;;
28028;SDS011;15345;59.364;18.016;2022-11-14T06:36:04;18.17;;;8.35;;
28028;SDS011;15345;59.364;18.016;2022-11-14T06:37:23;15.52;;;7.32;;
28028;SDS011;15345;59.364;18.016;2022-11-14T06:38:42;11.35;;;8.52;;
28028;SDS011;15345;59.364;18.016;2022-11-14T06:40:01;14.25;;;7.65;;
28028;SDS011;15345;59.364;18.016;2022-11-14T06:41:20;16.75;;;8.35;;
28028;SDS011;15345;59.364;18.016;2022-11-14T06:42:39;16.02;;;8.13;;
28028;SDS011;15345;59.364;18.016;2022-11-14T06:43:58;14.43;;;8.13;;
28028;SDS011;15345;59.364;18.016;2022-11-14T06:45:17;11.98;;;7.00;;
28028;SDS011;15345;59.364;18.016;2022-11-14T06:46:36;15.60;;;7.45;;
28028;SDS011;15345;59.364;18.016;2022-11-14T06:47:58;9.50;;;6.43;;
28028;SDS011;15345;59.364;18.016;2022-11-14T06:49:18;9.50;;;5.53;;
28028;SDS011;15345;59.364;18.016;2022-11-14T06:50:36;9.95;;;6.05;;
28028;SDS011;15345;59.364;18.016;2022-11-14T06:51:55;6.32;;;5.28;;
28028;SDS011;15345;59.364;18.016;2022-11-14T06:53:14;8.65;;;5.68;;
28028;SDS011;15345;59.364;18.016;2022-11-14T06:54:34;7.20;;;4.53;;
28028;SDS011;15345;59.364;18.016;2022-11-14T06:57:12;7.68;;;4.72;;
28028;SDS011;15345;59.364;18.016;2022-11-14T06:58:31;10.00;;;5.32;;
28028;SDS011;15345;59.364;18.016;2022-11-14T06:59:51;4.75;;;3.85;;
28028;SDS011;15345;59.364;18.016;2022-11-14T07:01:11;6.13;;;4.00;;
28028;SDS011;15345;59.364;18.016;2022-11-14T07:02:30;7.63;;;4.05;;
28028;SDS011;15345;59.364;18.016;2022-11-14T07:03:49;5.75;;;4.50;;
28028;SDS011;15345;59.364;18.016;2022-11-14T07:05:08;5.35;;;3.90;;
28028;SDS011;15345;59.364;18.016;2022-11-14T07:06:27;4.97;;;3.70;;
28028;SDS011;15345;59.364;18.016;2022-11-14T07:07:47;3.65;;;3.20;;
28028;SDS011;15345;59.364;18.016;2022-11-14T07:09:06;4.82;;;3.28;;
28028;SDS011;15345;59.364;18.016;2022-11-14T07:10:25;4.03;;;2.92;;
28028;SDS011;15345;59.364;18.016;2022-11-14T07:11:44;2.33;;;2.13;;
28028;SDS011;15345;59.364;18.016;2022-11-14T07:13:04;3.65;;;2.38;;
28028;SDS011;15345;59.364;18.016;2022-11-14T07:14:23;3.15;;;2.17;;
28028;SDS011;15345;59.364;18.016;2022-11-14T07:15:49;3.92;;;2.13;;
28028;SDS011;15345;59.364;18.016;2022-11-14T07:17:08;4.22;;;2.50;;
28028;SDS011;15345;59.364;18.016;2022-11-14T07:18:31;3.17;;;2.35;;
28028;SDS011;15345;59.364;18.016;2022-11-14T07:19:50;4.65;;;2.60;;
28028;SDS011;15345;59.364;18.016;2022-11-14T07:21:09;2.30;;;2.10;;
28028;SDS011;15345;59.364;18.016;2022-11-14T07:22:30;2.95;;;2.40;;
28028;SDS011;15345;59.364;18.016;2022-11-14T07:23:49;3.78;;;2.60;;
28028;SDS011;15345;59.364;18.016;2022-11-14T07:25:08;8.88;;;2.92;;
28028;SDS011;15345;59.364;18.016;2022-11-14T07:26:27;3.05;;;2.85;;
28028;SDS011;15345;59.364;18.016;2022-11-14T07:27:46;3.78;;;2.92;;
28028;SDS011;15345;59.364;18.016;2022-11-14T07:29:05;3.58;;;2.65;;
28028;SDS011;15345;59.364;18.016;2022-11-14T07:30:24;4.57;;;3.22;;
28028;SDS011;15345;59.364;18.016;2022-11-14T07:31:42;6.68;;;2.90;;
28028;SDS011;15345;59.364;18.016;2022-11-14T07:33:01;4.22;;;2.85;;
28028;SDS011;15345;59.364;18.016;2022-11-14T07:34:20;4.03;;;2.97;;
28028;SDS011;15345;59.364;18.016;2022-11-14T07:35:39;4.07;;;2.70;;
28028;SDS011;15345;59.364;18.016;2022-11-14T07:36:58;3.05;;;2.75;;
28028;SDS011;15345;59.364;18.016;2022-11-14T07:38:17;2.83;;;2.63;;
28028;SDS011;15345;59.364;18.016;2022-11-14T07:39:36;2.63;;;2.53;;
28028;SDS011;15345;59.364;18.016;2022-11-14T07:40:56;6.75;;;2.90;;
28028;SDS011;15345;59.364;18.016;2022-11-14T07:42:15;2.90;;;2.65;;
28028;SDS011;15345;59.364;18.016;2022-11-14T07:43:34;3.17;;;2.67;;
28028;SDS011;15345;59.364;18.016;2022-11-14T07:44:53;3.83;;;2.38;;
28028;SDS011;15345;59.364;18.016;2022-11-14T07:46:13;3.10;;;2.25;;
28028;SDS011;15345;59.364;18.016;2022-11-14T07:47:32;2.47;;;2.10;;
28028;SDS011;15345;59.364;18.016;2022-11-14T07:48:51;2.50;;;2.30;;
28028;SDS011;15345;59.364;18.016;2022-11-14T07:50:10;2.53;;;2.22;;
28028;SDS011;15345;59.364;18.016;2022-11-14T07:51:29;1.70;;;1.60;;
28028;SDS011;15345;59.364;18.016;2022-11-14T07:52:51;2.40;;;1.70;;
28028;SDS011;15345;59.364;18.016;2022-11-14T07:54:10;2.00;;;1.75;;
28028;SDS011;15345;59.364;18.016;2022-11-14T07:55:29;2.20;;;2.00;;
28028;SDS011;15345;59.364;18.016;2022-11-14T07:56:48;1.63;;;1.48;;
28028;SDS011;15345;59.364;18.016;2022-11-14T07:58:07;1.42;;;1.33;;
28028;SDS011;15345;59.364;18.016;2022-11-14T07:59:26;1.63;;;1.27;;
28028;SDS011;15345;59.364;18.016;2022-11-14T08:00:45;1.60;;;1.10;;
28028;SDS011;15345;59.364;18.016;2022-11-14T08:02:04;1.20;;;1.10;;
28028;SDS011;15345;59.364;18.016;2022-11-14T08:03:23;0.70;;;0.65;;
28028;SDS011;15345;59.364;18.016;2022-11-14T08:04:41;0.65;;;0.65;;
28028;SDS011;15345;59.364;18.016;2022-11-14T08:06:05;0.80;;;0.80;;
28028;SDS011;15345;59.364;18.016;2022-11-14T08:07:24;1.05;;;0.95;;
28028;SDS011;15345;59.364;18.016;2022-11-14T08:08:43;1.10;;;1.00;;
28028;SDS011;15345;59.364;18.016;2022-11-14T08:10:02;1.40;;;0.93;;
28028;SDS011;15345;59.364;18.016;2022-11-14T08:11:21;2.95;;;0.80;;
28028;SDS011;15345;59.364;18.016;2022-11-14T08:13:01;0.77;;;0.77;;
28028;SDS011;15345;59.364;18.016;2022-11-14T08:14:20;1.30;;;1.13;;
28028;SDS011;15345;59.364;18.016;2022-11-14T08:15:39;1.48;;;0.88;;
28028;SDS011;15345;59.364;18.016;2022-11-14T08:16:59;1.05;;;0.98;;
28028;SDS011;15345;59.364;18.016;2022-11-14T08:18:19;2.72;;;1.30;;
28028;SDS011;15345;59.364;18.016;2022-11-14T08:19:38;3.28;;;1.23;;